Keyes, OK (73947)

8:26 AM CDT on July 27, 2016 (GMT -0500)
Fort Wiegers | | Change Station

Elev 3554 ft 37.04 °N, 101.97 °W | Updated 9 seconds ago

Clear
Clear
71.2 °F
Feels Like 70 °F
N
6.0
Wind Variable Wind from SSE
Gusts 10.0 mph

Today
High -- | Low -- °F
--% Chance of Precip.
Yesterday
High -- | Low -- °F
Precip. -- in
Pressure 29.92 in
Visibility 10.0 miles
Clouds Clear
Heat Index 70 °F
Dew Point 66 °F
Humidity 84%
Rainfall 0.00 in
Snow Depth Not available.
6:51 AM 8:59 PM
Last Quarter, 43% visible
METAR KGUY 271253Z AUTO 12003KT 10SM CLR 22/19 A3007 RMK AO2 SLP131 T02220189
Pressure 29.92 in
Visibility 10.0 miles
Clouds Clear
Heat Index 70 °F
Dew Point 66 °F
Humidity 84%
Rainfall 0.00 in
Snow Depth Not available.
6:51 AM 8:59 PM
Last Quarter, 43% visible
METAR KGUY 271253Z AUTO 12003KT 10SM CLR 22/19 A3007 RMK AO2 SLP131 T02220189

10-Day Weather Forecast

Almanac

Astronomy

Jul. 27, 2016 Rise Set
Actual Time
Civil Twilight
Nautical Twilight
Astronomical Twilight
Moon
Length of Visible Light
Length of Day
Tomorrow will be .
, % of the Moon is Illuminated

Today's Extremes

State Highs State Lows

Community

WunderPhotos

Upload Photos

1,927,842 photos uploaded!

WunderBlog® & News

Nearby

Air Quality

  Air Quality AQ Index Pollutant
Not available.

Snow Depth

Station Depth Elevation

Earthquake Activity

City Distance Mag. Time & Date
Minimum magnitude displayed is 2.5.

Coastal Water Temperatures

Place Temperature

Stations

Nearby Weather Stations

Station Location Temp. Windchill Dew Point Humidity Wind Precip. Elev Updated Type
                   

Watches & Warnings

There are currently no watches in effect.